Latest Weather Observations for Paraburdoo

IDW60801

Issued at 11:35 pm WST Wednesday 16 April 2014 (issued every 30 minutes, with the page automatically refreshed every 10 minutes)

About weather observations | Map of weather stations | Latest weather observations for WA | Other Formats
Station Details ID: 007185 Name: PARABURDOO AERO Lat: -23.17 Lon: 117.75 Height: 423.7 m
Data from the previous 72 hours. | See also: Recent months at Paraburdoo
Date/Time
WST
Temp
°C
App
Temp
°C
Dew
Point
Rel
Hum
%
Delta-T
°C
Wind Press
QNH
hPa
Press
MSL
hPa
Rain
since 9 am
mm
Dir
 
Spd
km/h
Gust
km/h
Spd
kts
Gust
kts
16/11:30pm 21.3 18.1 0.5 25 9.6 ENE 7 9 4 5 1017.5 - 0.0
16/11:00pm 22.3 19.1 0.8 24 10.0 ENE 7 7 4 4 1017.6 - 0.0
16/10:30pm 22.9 19.3 0.7 23 10.4 ENE 9 11 5 6 1017.7 - 0.0
16/10:00pm 23.7 19.3 0.1 21 11.0 ENE 13 15 7 8 1017.6 - 0.0
16/09:30pm 25.4 21.0 0.1 19 12.0 E 13 15 7 8 1017.5 - 0.0
16/09:00pm 26.3 21.9 0.1 18 12.4 E 13 17 7 9 1017.2 1014.4 0.0
16/08:30pm 26.8 22.4 0.5 18 12.6 E 13 17 7 9 1017.1 - 0.0
16/08:00pm 26.3 22.2 0.1 18 12.5 ESE 11 15 6 8 1016.8 - 0.0
16/07:30pm 26.3 22.2 0.1 18 12.5 SE 11 13 6 7 1016.4 - 0.0
16/07:00pm 27.2 23.1 0.1 17 13.0 ESE 11 13 6 7 1015.9 - 0.0
16/06:30pm 29.2 25.4 -1.0 14 14.4 E 9 11 5 6 1015.6 - 0.0
16/06:00pm 30.8 27.0 -0.8 13 15.3 E 9 13 5 7 1015.2 1012.4 0.0
16/05:30pm 32.2 27.3 -0.8 12 16.1 ESE 15 20 8 11 1015.1 - 0.0
16/05:00pm 32.8 28.1 -1.5 11 16.6 E 13 24 7 13 1014.9 - 0.0
16/04:30pm 33.1 27.9 -2.6 10 17.0 E 15 24 8 13 1014.7 - 0.0
16/04:00pm 33.3 28.5 -2.4 10 17.1 ESE 13 26 7 14 1014.6 - 0.0
16/03:30pm 33.8 28.7 -2.0 10 17.3 E 15 26 8 14 1014.8 - 0.0
16/03:00pm 33.1 27.7 -1.3 11 16.7 SE 17 37 9 20 1015.0 1012.2 0.0
16/02:30pm 33.5 27.8 -1.0 11 16.9 ESE 19 32 10 17 1015.2 - 0.0
16/02:00pm 32.8 27.0 -1.5 11 16.6 SE 19 28 10 15 1015.4 - 0.0
16/01:30pm 32.5 27.6 -0.5 12 16.2 ENE 15 22 8 12 1015.9 - 0.0
16/01:00pm 32.5 26.6 -0.5 12 16.2 ESE 20 28 11 15 1016.4 - 0.0
16/12:30pm 32.2 26.5 -0.8 12 16.1 ESE 19 33 10 18 1016.8 - 0.0
16/12:00pm 31.2 25.1 0.6 14 15.2 ENE 22 32 12 17 1017.4 1014.6 0.0
16/11:30am 31.5 27.7 1.8 15 15.1 NE 11 20 6 11 1018.0 - 0.0
16/11:00am 31.1 25.0 0.5 14 15.1 ENE 22 32 12 17 1018.6 - 0.0
16/10:30am 29.5 23.1 1.1 16 14.1 ENE 24 33 13 18 1019.3 - 0.0
16/10:00am 29.3 22.9 0.9 16 14.0 ENE 24 39 13 21 1019.5 - 0.0
16/09:30am 28.6 22.7 2.0 18 13.3 E 22 33 12 18 1019.7 - 0.0
16/09:00am 27.9 23.0 2.2 19 12.8 E 17 26 9 14 1019.8 1017.0 0.0
16/08:30am 26.2 22.6 2.8 22 11.7 E 11 15 6 8 1019.9 - 0.0
16/08:00am 23.9 21.1 3.2 26 10.2 ENE 7 11 4 6 1019.8 - 0.0
16/07:30am 22.3 19.2 3.4 29 9.3 ENE 9 11 5 6 1019.6 - 0.0
16/07:00am 18.5 14.8 2.4 34 7.5 ENE 11 15 6 8 1019.2 - 0.0
16/06:30am 16.9 13.5 2.1 37 6.8 ENE 9 13 5 7 1019.0 - 0.0
16/06:00am 17.3 14.0 2.5 37 6.9 ENE 9 11 5 6 1018.9 1016.1 0.0
16/05:30am 17.3 13.6 2.1 36 7.0 ENE 11 13 6 7 1018.6 - 0.0
16/05:00am 17.9 14.1 1.8 34 7.4 E 11 15 6 8 1018.6 - 0.0
16/04:30am 18.0 14.2 1.9 34 7.4 ENE 11 13 6 7 1018.4 - 0.0
16/04:00am 18.4 14.2 1.9 33 7.6 ENE 13 13 7 7 1018.4 - 0.0
16/03:30am 19.0 14.9 2.0 32 7.9 NE 13 15 7 8 1018.3 - 0.0
16/03:00am 20.5 16.4 2.3 30 8.6 E 13 15 7 8 1018.3 1015.5 0.0
16/02:30am 20.6 16.8 2.0 29 8.8 E 11 15 6 8 1018.4 - 0.0
16/02:00am 23.2 19.3 3.2 27 9.8 E 13 17 7 9 1018.5 - 0.0
16/01:30am 23.1 19.1 2.6 26 10.0 ENE 13 17 7 9 1018.8 - 0.0
16/01:00am 22.3 18.2 2.4 27 9.6 NE 13 15 7 8 1019.0 - 0.0
16/12:30am 23.3 19.1 1.6 24 10.4 E 13 19 7 10 1019.1 - 0.0
16/12:00am 24.1 19.6 2.3 24 10.6 ESE 15 17 8 9 1019.0 1016.2 0.0
 
Date/Time
WST
Temp
°C
App
Temp
°C
Dew
Point
Rel
Hum
%
Delta-T
°C
Wind Press
QNH
hPa
Press
MSL
hPa
Rain
since 9 am
mm
Dir
 
Spd
km/h
Gust
km/h
Spd
kts
Gust
kts
15/11:30pm 24.7 20.2 2.2 23 11.0 ESE 15 19 8 10 1019.0 - 0.0
15/11:00pm 25.3 20.4 2.1 22 11.4 E 17 20 9 11 1019.0 - 0.0
15/10:30pm 25.5 21.0 2.2 22 11.4 E 15 17 8 9 1019.1 - 0.0
15/10:00pm 25.1 20.9 1.9 22 11.3 E 13 15 7 8 1019.1 - 0.0
15/09:30pm 25.4 21.8 0.8 20 11.8 ESE 9 11 5 6 1019.1 - 0.0
15/09:00pm 27.0 22.8 1.4 19 12.5 SE 13 15 7 8 1018.8 1016.0 0.0
15/08:30pm 27.5 23.2 1.1 18 12.9 SE 13 17 7 9 1018.6 - 0.0
15/08:00pm 27.6 23.3 1.2 18 12.9 SE 13 15 7 8 1018.4 - 0.0
15/07:30pm 27.4 23.5 1.0 18 12.9 SE 11 15 6 8 1018.0 - 0.0
15/07:00pm 28.3 24.4 0.9 17 13.4 SE 11 17 6 9 1017.6 - 0.0
15/06:30pm 29.2 25.2 0.8 16 14.0 ESE 11 15 6 8 1017.4 - 0.0
15/06:00pm 30.1 25.7 0.6 15 14.5 SE 13 20 7 11 1017.1 1014.3 0.0
15/05:30pm 31.4 25.8 -0.3 13 15.5 SE 19 24 10 13 1016.8 - 0.0
15/05:00pm 32.3 26.8 0.4 13 15.9 ESE 19 30 10 16 1016.6 - 0.0
15/04:30pm 33.0 27.4 -0.2 12 16.4 ESE 19 28 10 15 1016.4 - 0.0
15/04:00pm 33.2 27.6 0.0 12 16.5 E 19 28 10 15 1016.1 - 0.0
15/03:30pm 32.7 27.2 0.7 13 16.1 SE 19 24 10 13 1016.3 - 0.0
15/03:00pm 32.8 29.4 1.8 14 15.8 SE 9 20 5 11 1016.3 1013.4 0.0
15/02:30pm 33.2 28.3 2.1 14 16.0 ESE 17 26 9 14 1016.4 - 0.0
15/02:00pm 32.3 26.9 1.4 14 15.6 ESE 19 26 10 14 1016.9 - 0.0
15/01:30pm 31.9 26.9 1.1 14 15.5 ESE 17 30 9 16 1017.2 - 0.0
15/01:00pm 32.5 27.2 1.6 14 15.7 SE 19 33 10 18 1017.4 - 0.0
15/12:30pm 32.0 28.3 2.1 15 15.3 ESE 11 24 6 13 1017.7 - 0.0
15/12:00pm 30.3 25.1 2.5 17 14.1 ESE 19 30 10 16 1018.3 1015.5 0.0
15/11:30am 30.6 25.6 3.6 18 14.0 ESE 19 26 10 14 1018.9 - 0.0
15/11:00am 29.9 24.9 4.5 20 13.4 ENE 20 35 11 19 1019.4 - 0.0
15/10:30am 29.9 24.5 4.5 20 13.4 ENE 22 35 12 19 1019.8 - 0.0
15/10:00am 28.8 24.0 5.6 23 12.3 ENE 20 32 11 17 1020.0 - 0.0
15/09:30am 28.6 23.1 6.1 24 12.1 ENE 24 35 13 19 1020.2 - 0.0
15/09:00am 27.2 21.0 6.0 26 11.2 ENE 28 41 15 22 1020.2 1017.4 0.0
15/08:30am 26.2 21.4 5.7 27 10.8 NE 20 30 11 16 1020.2 - 0.0
15/08:00am 25.3 21.9 6.0 29 10.1 ENE 13 19 7 10 1020.1 - 0.0
15/07:30am 23.0 20.8 5.4 32 9.0 NE 6 13 3 7 1020.0 - 0.0
15/07:00am 20.4 17.8 4.4 35 7.9 ENE 7 9 4 5 1019.7 - 0.0
15/06:30am 20.4 16.8 4.8 36 7.8 ESE 13 15 7 8 1019.4 - 0.0
15/06:00am 20.7 16.7 4.7 35 8.0 E 15 19 8 10 1019.1 1016.3 0.0
15/05:30am 21.1 17.0 4.6 34 8.2 ESE 15 19 8 10 1019.0 - 0.0
15/05:00am 21.2 17.5 4.3 33 8.4 ESE 13 15 7 8 1019.0 - 0.0
15/04:30am 21.5 17.7 4.1 32 8.6 E 13 17 7 9 1018.9 - 0.0
15/04:00am 22.2 18.4 3.8 30 9.1 E 13 20 7 11 1018.8 - 0.0
15/03:30am 22.8 18.3 4.3 30 9.3 NE 17 20 9 11 1018.6 - 0.0
15/03:00am 22.5 18.3 3.6 29 9.3 E 15 20 8 11 1018.5 1015.8 0.0
15/02:30am 22.0 18.4 3.2 29 9.2 ENE 11 15 6 8 1018.6 - 0.0
15/02:00am 23.7 19.1 3.6 27 10.0 E 17 20 9 11 1018.6 - 0.0
15/01:30am 23.0 19.4 3.0 27 9.8 ENE 11 15 6 8 1018.8 - 0.0
15/01:00am 23.9 19.6 3.2 26 10.2 ESE 15 20 8 11 1018.6 - 0.0
15/12:30am 24.3 19.6 3.0 25 10.5 ESE 17 20 9 11 1018.8 - 0.0
15/12:00am 24.9 20.2 3.0 24 10.8 ESE 17 20 9 11 1018.8 1016.0 0.0
 
Date/Time
WST
Temp
°C
App
Temp
°C
Dew
Point
Rel
Hum
%
Delta-T
°C
Wind Press
QNH
hPa
Press
MSL
hPa
Rain
since 9 am
mm
Dir
 
Spd
km/h
Gust
km/h
Spd
kts
Gust
kts
14/11:30pm 25.4 20.3 2.8 23 11.2 ESE 19 22 10 12 1018.9 - 0.0
14/11:00pm 26.1 20.9 2.7 22 11.6 ESE 19 24 10 13 1018.9 - 0.0
14/10:30pm 26.6 21.4 2.5 21 12.0 ESE 19 22 10 12 1018.9 - 0.0
14/10:00pm 26.8 21.9 2.0 20 12.2 ESE 17 22 9 12 1019.0 - 0.0
14/09:30pm 26.6 22.0 1.8 20 12.2 E 15 17 8 9 1018.9 - 0.0
14/09:00pm 26.2 22.0 1.5 20 12.0 E 13 17 7 9 1018.6 1015.9 0.0
14/08:30pm 27.8 23.5 1.3 18 13.0 ESE 13 22 7 12 1018.2 - 0.0
14/08:00pm 28.2 23.9 0.9 17 13.3 SE 13 17 7 9 1017.9 - 0.0
14/07:30pm 28.8 24.5 1.3 17 13.6 SE 13 17 7 9 1017.5 - 0.0
14/07:00pm 28.8 24.4 0.5 16 13.8 SE 13 15 7 8 1017.2 - 0.0
14/06:30pm 30.1 25.4 0.6 15 14.5 SE 15 22 8 12 1016.8 - 0.0
14/06:00pm 30.6 25.4 0.1 14 14.9 SE 17 24 9 13 1016.4 1013.6 0.0
14/05:30pm 31.4 25.7 0.7 14 15.3 ESE 20 30 11 16 1015.9 - 0.0
14/05:00pm 32.0 26.2 0.2 13 15.8 ESE 20 32 11 17 1015.6 - 0.0
14/04:30pm 32.3 26.6 -0.7 12 16.1 SE 19 30 10 16 1015.4 - 0.0
14/04:00pm 32.6 26.9 -0.5 12 16.3 SSE 19 28 10 15 1015.2 - 0.0
14/03:30pm 33.0 27.2 -0.2 12 16.4 E 20 35 11 19 1015.4 - 0.0
14/03:00pm 33.5 27.7 0.2 12 16.6 SE 20 37 11 20 1015.6 1012.8 0.0
14/02:30pm 33.4 28.4 1.3 13 16.3 E 17 33 9 18 1015.6 - 0.0
14/02:00pm 33.4 27.8 0.1 12 16.6 SE 19 44 10 24 1015.8 - 0.0
14/01:30pm 32.8 27.1 0.8 13 16.1 E 20 32 11 17 1016.0 - 0.0
14/01:00pm 32.7 27.2 0.7 13 16.1 E 19 24 10 13 1016.4 - 0.0
14/12:30pm 31.9 26.1 2.1 15 15.2 ESE 22 33 12 18 1017.1 - 0.0
14/12:00pm 31.0 25.6 2.3 16 14.6 E 20 33 11 18 1017.4 1014.6 0.0
14/11:30am 31.1 25.2 1.4 15 14.9 ESE 22 33 12 18 1017.9 - 0.0
14/11:00am 30.7 24.8 2.0 16 14.5 ESE 22 35 12 19 1018.2 - 0.0
14/10:30am 29.8 24.2 3.7 19 13.5 E 22 35 12 19 1018.5 - 0.0
14/10:00am 29.0 24.6 4.5 21 12.8 ESE 17 44 9 24 1019.0 - 0.0
14/09:30am 28.1 23.3 4.4 22 12.3 E 19 28 10 15 1019.2 - 0.0
14/09:00am 27.2 23.5 4.3 23 11.8 ESE 13 19 7 10 1019.2 1016.4 0.0
14/08:30am 25.7 21.8 3.6 24 11.1 E 13 20 7 11 1019.2 - 0.0
14/08:00am 24.7 20.5 3.9 26 10.5 ESE 15 20 8 11 1019.1 - 0.0
14/07:30am 23.7 19.1 3.6 27 10.0 ESE 17 22 9 12 1018.9 - 0.0
14/07:00am 22.6 17.9 3.2 28 9.5 ESE 17 20 9 11 1018.5 - 0.0
14/06:30am 21.5 17.1 2.7 29 9.1 ESE 15 20 8 11 1018.2 - 0.0
14/06:00am 22.5 16.8 2.6 27 9.6 E 22 28 12 15 1018.0 1015.2 0.0
14/05:30am 22.9 16.7 2.4 26 9.9 E 24 33 13 18 1017.8 - 0.0
14/05:00am 22.8 17.3 1.8 25 10.0 E 20 28 11 15 1017.7 - 0.0
14/04:30am 22.9 17.3 0.1 22 10.6 E 19 22 10 12 1017.7 - 0.0
14/04:00am 23.6 18.0 0.0 21 11.0 E 19 26 10 14 1017.5 - 0.0
14/03:30am 24.2 18.6 -0.2 20 11.4 E 19 26 10 14 1017.5 - 0.0
14/03:00am 24.3 18.5 -0.1 20 11.4 ENE 20 28 11 15 1017.4 1014.6 0.0
14/02:30am 23.9 19.1 0.3 21 11.1 ENE 15 19 8 10 1017.7 - 0.0
14/02:00am 23.3 18.9 0.4 22 10.7 E 13 17 7 9 1017.7 - 0.0
14/01:30am 24.3 19.1 -0.1 20 11.4 E 17 20 9 11 1017.7 - 0.0
14/01:00am 24.2 19.4 0.5 21 11.2 E 15 19 8 10 1017.8 - 0.0
14/12:30am 24.7 19.9 0.3 20 11.5 E 15 19 8 10 1017.8 - 0.0
14/12:00am 24.9 20.5 0.4 20 11.6 E 13 17 7 9 1017.8 1015.0 0.0

Other Formats:

Comma delimited format used in spreadsheet applications
http://www.bom.gov.au/fwo/IDW60801/IDW60801.94316.axf

JavaScript Object Notation format (JSON) in row-major order
http://www.bom.gov.au/fwo/IDW60801/IDW60801.94316.json